createdAt,value
2022-09-23T00:00:16.480Z,99.90
2022-09-23T00:05:22.625Z,99.90
2022-09-23T00:10:32.694Z,99.90
2022-09-23T00:15:42.243Z,99.90
2022-09-23T00:20:47.625Z,99.90
2022-09-23T00:26:00.288Z,99.90
2022-09-23T00:31:08.152Z,99.90
2022-09-23T00:36:17.998Z,99.90
2022-09-23T00:41:24.078Z,99.90
2022-09-23T00:46:35.554Z,99.90
2022-09-23T00:51:55.925Z,99.90
2022-09-23T00:57:07.358Z,99.90
2022-09-23T01:02:15.932Z,99.90
2022-09-23T01:07:21.595Z,99.90
2022-09-23T01:12:36.609Z,99.90
2022-09-23T01:18:02.528Z,99.90
2022-09-23T01:23:43.596Z,99.90
2022-09-23T01:28:54.717Z,99.90
2022-09-23T01:34:07.941Z,99.90
2022-09-23T01:39:24.351Z,99.90
2022-09-23T01:44:40.872Z,99.90
2022-09-23T01:50:30.770Z,99.90
2022-09-23T01:55:44.590Z,99.90
2022-09-23T02:01:08.874Z,99.90
2022-09-23T02:06:49.079Z,99.90
2022-09-23T02:12:02.273Z,99.90
2022-09-23T02:17:14.751Z,99.90
2022-09-23T02:22:26.209Z,99.90
2022-09-23T02:27:56.513Z,99.90
2022-09-23T02:33:08.905Z,99.90
2022-09-23T02:38:45.688Z,99.90
2022-09-23T02:44:05.054Z,99.90
2022-09-23T02:49:19.663Z,99.90
2022-09-23T02:54:29.610Z,99.90
2022-09-23T02:59:37.645Z,99.90
2022-09-23T03:05:05.617Z,99.90
2022-09-23T03:10:17.110Z,99.90
2022-09-23T03:15:37.828Z,99.90
2022-09-23T03:20:59.185Z,99.90
2022-09-23T03:26:14.782Z,99.90
2022-09-23T03:31:20.689Z,99.90
2022-09-23T03:36:55.068Z,99.90
2022-09-23T03:42:10.042Z,99.90
2022-09-23T03:47:17.056Z,99.90
2022-09-23T03:52:25.622Z,99.90
2022-09-23T03:57:30.994Z,99.90
2022-09-23T04:02:37.142Z,99.90
2022-09-23T04:07:43.084Z,99.90
2022-09-23T04:12:48.969Z,99.90
2022-09-23T04:17:54.287Z,99.90
2022-09-23T04:23:00.120Z,99.90
2022-09-23T04:28:05.908Z,99.90
2022-09-23T04:33:12.789Z,99.90
2022-09-23T04:38:18.336Z,99.90
2022-09-23T04:43:25.203Z,99.90
2022-09-23T04:48:32.158Z,99.90
2022-09-23T04:53:39.561Z,99.90
2022-09-23T04:58:46.098Z,99.90
2022-09-23T05:03:51.379Z,99.90
2022-09-23T05:08:57.998Z,99.90
2022-09-23T05:14:03.375Z,99.90
2022-09-23T05:19:08.571Z,99.90
2022-09-23T05:24:15.046Z,99.90
2022-09-23T05:29:20.594Z,99.90
2022-09-23T05:34:26.494Z,99.90
2022-09-23T05:39:31.917Z,99.90
2022-09-23T05:44:37.371Z,99.90
2022-09-23T05:49:59.261Z,99.90
2022-09-23T05:55:07.248Z,99.90
2022-09-23T06:00:13.723Z,99.90
2022-09-23T06:05:19.489Z,99.90
2022-09-23T06:10:25.372Z,99.90
2022-09-23T06:15:31.247Z,99.90
2022-09-23T06:20:37.350Z,99.90
2022-09-23T06:25:42.914Z,99.90
2022-09-23T06:30:49.474Z,99.90
2022-09-23T06:36:02.111Z,99.90
2022-09-23T06:41:07.621Z,99.90
2022-09-23T06:46:15.390Z,99.90
2022-09-23T06:51:21.418Z,99.90
2022-09-23T06:56:26.706Z,99.90
2022-09-23T07:01:32.168Z,99.90
2022-09-23T07:06:38.835Z,99.90
2022-09-23T07:11:44.763Z,99.90
2022-09-23T07:16:54.986Z,99.90
2022-09-23T07:22:00.539Z,99.90
2022-09-23T07:27:07.090Z,96.50
2022-09-23T07:32:14.340Z,99.90
2022-09-23T07:37:20.597Z,99.90
2022-09-23T07:42:26.093Z,99.90
2022-09-23T07:47:33.215Z,99.90
2022-09-23T07:52:40.240Z,98.00
2022-09-23T07:57:45.822Z,92.80
2022-09-23T08:02:54.371Z,87.70
2022-09-23T08:08:00.380Z,90.40
2022-09-23T08:13:06.282Z,92.30
2022-09-23T08:18:12.324Z,91.90
2022-09-23T08:23:20.172Z,86.10
2022-09-23T08:28:27.810Z,88.10
2022-09-23T08:33:33.726Z,89.20
2022-09-23T08:38:38.559Z,84.60
2022-09-23T08:43:51.426Z,85.90
2022-09-23T08:48:57.674Z,80.50
2022-09-23T08:54:03.330Z,99.90
2022-09-23T08:59:28.479Z,99.90
2022-09-23T09:04:46.137Z,1.00
2022-09-23T09:09:59.766Z,1.00
2022-09-23T09:15:14.867Z,99.90
2022-09-23T09:20:51.828Z,99.90
2022-09-23T09:26:08.581Z,99.90
2022-09-23T09:31:28.801Z,1.00
2022-09-23T09:37:06.848Z,1.00
2022-09-23T09:42:26.165Z,1.00
2022-09-23T09:47:48.404Z,1.00
2022-09-23T09:53:15.704Z,1.00
2022-09-23T09:58:21.145Z,1.00
2022-09-23T10:03:41.766Z,1.00
2022-09-23T10:09:05.490Z,1.00
2022-09-23T10:14:19.288Z,99.90
2022-09-23T10:19:30.910Z,99.90
2022-09-23T10:24:41.165Z,99.90
2022-09-23T10:29:49.599Z,1.00
2022-09-23T10:35:26.208Z,1.00
2022-09-23T10:40:55.782Z,1.00
2022-09-23T10:46:26.819Z,1.00
2022-09-23T10:51:58.090Z,99.90
2022-09-23T10:57:52.689Z,99.90
2022-09-23T11:03:35.315Z,99.90
2022-09-23T11:08:55.215Z,99.90
2022-09-23T11:14:19.480Z,99.90
2022-09-23T11:19:50.969Z,99.90
2022-09-23T11:25:24.781Z,99.90
2022-09-23T11:31:05.905Z,99.90
2022-09-23T11:36:17.453Z,99.90
2022-09-23T11:41:29.235Z,99.90
2022-09-23T11:46:56.216Z,99.90
2022-09-23T11:52:04.557Z,99.90
2022-09-23T11:57:18.871Z,99.90
2022-09-23T12:03:05.341Z,99.90
2022-09-23T12:08:34.571Z,99.90
2022-09-23T12:13:49.372Z,99.90
2022-09-23T12:42:13.363Z,99.90
2022-09-23T12:47:33.124Z,99.90
2022-09-23T12:52:39.360Z,99.90
2022-09-23T12:57:45.208Z,99.90
2022-09-23T13:03:14.333Z,99.90
2022-09-23T13:08:29.412Z,99.90
2022-09-23T13:13:43.859Z,99.90
2022-09-23T13:18:58.212Z,1.00
2022-09-23T13:24:33.020Z,1.00
2022-09-23T13:29:50.967Z,1.00
2022-09-23T13:35:19.106Z,99.90
2022-09-23T13:40:31.211Z,99.90
2022-09-23T13:45:44.909Z,99.90
2022-09-23T13:50:55.870Z,99.90
2022-09-23T13:56:20.013Z,99.90
2022-09-23T14:01:37.724Z,1.00
2022-09-23T14:06:44.350Z,1.00
2022-09-23T14:11:53.482Z,1.00
2022-09-23T14:17:02.169Z,1.00
2022-09-23T14:22:25.429Z,1.00
2022-09-23T14:27:38.397Z,1.00
2022-09-23T14:32:46.174Z,1.00
2022-09-23T14:38:14.772Z,1.00
2022-09-23T14:43:32.110Z,99.90
2022-09-23T14:48:38.695Z,99.90
2022-09-23T14:53:47.402Z,99.90
2022-09-23T14:59:00.799Z,1.00
2022-09-23T15:04:18.815Z,1.00
2022-09-23T15:09:38.091Z,1.00
2022-09-23T15:14:51.165Z,1.00
2022-09-23T15:20:07.352Z,1.00
2022-09-23T15:25:32.555Z,1.00
2022-09-23T15:30:39.963Z,1.00
2022-09-23T15:35:49.138Z,1.00
2022-09-23T15:40:55.788Z,1.00
2022-09-23T15:46:21.811Z,1.00
2022-09-23T15:51:28.373Z,1.00
2022-09-23T15:56:33.884Z,1.00
2022-09-23T16:01:41.343Z,1.00
2022-09-23T16:06:49.715Z,1.00
2022-09-23T16:11:56.223Z,99.90
2022-09-23T16:17:05.114Z,1.00
2022-09-23T16:22:13.836Z,1.00
2022-09-23T16:27:21.829Z,1.00
2022-09-23T16:32:30.571Z,1.00
2022-09-23T16:37:36.806Z,1.00
2022-09-23T16:42:42.216Z,1.00
2022-09-23T16:47:49.207Z,1.00
2022-09-23T16:52:58.548Z,1.00
2022-09-23T16:58:04.072Z,14.50
2022-09-23T17:03:27.964Z,16.30
2022-09-23T17:08:33.698Z,99.90
2022-09-23T17:13:39.573Z,99.90
2022-09-23T17:18:45.672Z,1.00
2022-09-23T17:23:51.345Z,1.00
2022-09-23T17:29:00.574Z,99.90
2022-09-23T17:34:05.805Z,99.90
2022-09-23T17:39:11.314Z,1.00
2022-09-23T17:44:19.282Z,99.90
2022-09-23T17:49:25.913Z,99.90
2022-09-23T17:54:31.459Z,99.90
2022-09-23T17:59:36.923Z,1.00
2022-09-23T18:04:42.261Z,99.90
2022-09-23T18:09:47.543Z,99.90
2022-09-23T18:14:52.986Z,99.90
2022-09-23T18:19:58.415Z,99.90
2022-09-23T18:25:22.715Z,99.90
2022-09-23T18:30:34.601Z,99.90
2022-09-23T18:35:40.418Z,99.90
2022-09-23T18:40:57.882Z,99.90
2022-09-23T18:46:07.131Z,99.90
2022-09-23T18:51:14.216Z,1.00
2022-09-23T18:56:24.434Z,1.00
2022-09-23T19:01:30.522Z,99.90
2022-09-23T19:06:36.828Z,1.00
2022-09-23T19:11:42.289Z,99.90
2022-09-23T19:16:50.574Z,99.90
2022-09-23T19:21:56.450Z,99.90
2022-09-23T19:27:04.943Z,21.00
2022-09-23T19:32:10.446Z,1.00
2022-09-23T19:37:15.878Z,99.90
2022-09-23T19:42:21.290Z,99.90
2022-09-23T19:47:27.135Z,99.90
2022-09-23T19:52:32.835Z,99.90
2022-09-23T19:57:37.788Z,75.60
2022-09-23T20:02:43.754Z,40.30
2022-09-23T20:07:49.569Z,7.90
2022-09-23T20:12:55.566Z,1.00
2022-09-23T20:18:01.001Z,1.00
2022-09-23T20:23:06.475Z,1.00
2022-09-23T20:28:12.137Z,99.90
2022-09-23T20:33:17.634Z,99.90
2022-09-23T20:38:23.324Z,1.00
2022-09-23T20:43:28.374Z,99.90
2022-09-23T20:48:34.015Z,99.90
2022-09-23T20:53:40.119Z,99.90
2022-09-23T20:58:46.303Z,1.00
2022-09-23T21:03:54.019Z,1.00
2022-09-23T21:09:01.089Z,58.10
2022-09-23T21:14:07.047Z,1.00
2022-09-23T21:19:12.674Z,99.90
2022-09-23T21:24:53.197Z,99.90
2022-09-23T21:29:43.385Z,99.90
2022-09-23T21:34:49.147Z,30.10
2022-09-23T21:40:20.369Z,10.10
2022-09-23T21:45:25.850Z,1.00
2022-09-23T21:50:31.285Z,1.00
2022-09-23T21:55:36.304Z,1.00
2022-09-23T22:00:42.060Z,1.00
2022-09-23T22:05:47.692Z,1.00
2022-09-23T22:10:55.798Z,1.00
2022-09-23T22:16:07.706Z,1.00
2022-09-23T22:21:13.269Z,99.90
2022-09-23T22:26:18.543Z,99.90
2022-09-23T22:31:42.223Z,99.90
2022-09-23T22:36:48.096Z,99.90
2022-09-23T22:41:53.301Z,99.90
2022-09-23T22:47:00.538Z,99.90
2022-09-23T22:52:10.055Z,99.90
2022-09-23T22:57:16.513Z,99.90
2022-09-23T23:02:25.891Z,99.90
2022-09-23T23:07:31.700Z,99.90
2022-09-23T23:12:37.214Z,99.90
2022-09-23T23:17:45.009Z,99.90
2022-09-23T23:22:50.434Z,99.90
2022-09-23T23:27:55.958Z,99.90
2022-09-23T23:33:02.065Z,99.90
2022-09-23T23:38:09.644Z,99.90
2022-09-23T23:43:16.533Z,99.90
2022-09-23T23:48:22.960Z,99.90
2022-09-23T23:53:32.075Z,99.90
2022-09-23T23:58:38.229Z,99.90
